createdAt,value
2019-01-23T00:00:05.402Z,17.69
2019-01-23T00:01:05.470Z,17.69
2019-01-23T00:02:06.053Z,17.7
2019-01-23T00:03:05.772Z,17.69
2019-01-23T00:04:05.761Z,17.68
2019-01-23T00:05:05.784Z,17.67
2019-01-23T00:06:05.700Z,17.68
2019-01-23T00:07:05.482Z,17.67
2019-01-23T00:08:05.260Z,17.66
2019-01-23T00:09:05.708Z,17.66
2019-01-23T00:10:05.278Z,17.66
2019-01-23T00:11:06.151Z,17.66
2019-01-23T00:12:05.948Z,17.65
2019-01-23T00:13:05.750Z,17.63
2019-01-23T00:14:05.889Z,17.63
2019-01-23T00:15:05.649Z,17.62
2019-01-23T00:16:05.786Z,17.64
2019-01-23T00:17:05.620Z,17.63
2019-01-23T00:18:05.895Z,17.61
2019-01-23T00:19:05.389Z,17.63
2019-01-23T00:20:06.352Z,17.61
2019-01-23T00:21:05.764Z,17.62
2019-01-23T00:22:05.698Z,17.6
2019-01-23T00:23:05.927Z,17.6
2019-01-23T00:24:05.447Z,17.59
2019-01-23T00:25:05.524Z,17.6
2019-01-23T00:26:05.322Z,17.61
2019-01-23T00:27:07.309Z,17.59
2019-01-23T00:28:06.099Z,17.59
2019-01-23T00:29:05.558Z,17.59
2019-01-23T00:30:08.343Z,17.59
2019-01-23T00:31:05.788Z,17.54
2019-01-23T00:32:05.757Z,17.55
2019-01-23T00:33:05.372Z,17.54
2019-01-23T00:34:05.361Z,17.54
2019-01-23T00:35:05.913Z,17.55
2019-01-23T00:36:05.964Z,17.52
2019-01-23T00:37:05.687Z,17.55
2019-01-23T00:38:06.009Z,17.53
2019-01-23T00:39:05.383Z,17.52
2019-01-23T00:40:05.610Z,17.53
2019-01-23T00:41:05.978Z,17.5
2019-01-23T00:42:05.386Z,17.5
2019-01-23T00:43:05.296Z,17.51
2019-01-23T00:44:05.870Z,17.49
2019-01-23T00:45:05.682Z,17.5
2019-01-23T00:46:05.707Z,17.47
2019-01-23T00:47:05.899Z,17.48
2019-01-23T00:48:05.668Z,17.48
2019-01-23T00:49:05.417Z,17.47
2019-01-23T00:50:05.727Z,17.46
2019-01-23T00:51:05.414Z,17.46
2019-01-23T00:52:05.510Z,17.46
2019-01-23T00:53:05.362Z,17.45
2019-01-23T00:54:05.677Z,17.44
2019-01-23T00:55:05.621Z,17.45
2019-01-23T00:56:05.853Z,17.45
2019-01-23T00:57:07.880Z,17.44
2019-01-23T00:58:05.570Z,17.46
2019-01-23T00:59:05.511Z,17.46
2019-01-23T01:00:05.342Z,17.41
2019-01-23T01:01:05.506Z,17.44
2019-01-23T01:02:05.520Z,17.43
2019-01-23T01:03:05.718Z,17.44
2019-01-23T01:04:05.407Z,17.4
2019-01-23T01:05:05.990Z,17.41
2019-01-23T01:06:05.383Z,17.4
2019-01-23T01:07:05.757Z,17.39
2019-01-23T01:08:05.843Z,17.4
2019-01-23T01:09:05.316Z,17.4
2019-01-23T01:10:05.722Z,17.39
2019-01-23T01:11:05.736Z,17.39
2019-01-23T01:12:05.712Z,17.37
2019-01-23T01:13:05.619Z,17.37
2019-01-23T01:14:05.961Z,17.37
2019-01-23T01:15:05.385Z,17.37
2019-01-23T01:16:05.518Z,17.37
2019-01-23T01:17:06.280Z,17.37
2019-01-23T01:18:05.419Z,17.35
2019-01-23T01:19:05.798Z,17.36
2019-01-23T01:20:05.517Z,17.36
2019-01-23T01:21:05.706Z,17.36
2019-01-23T01:22:07.344Z,17.35
2019-01-23T01:23:05.316Z,17.37
2019-01-23T01:24:05.718Z,17.37
2019-01-23T01:25:06.139Z,17.34
2019-01-23T01:26:05.895Z,17.32
2019-01-23T01:27:05.746Z,17.31
2019-01-23T01:28:05.778Z,17.34
2019-01-23T01:29:05.863Z,17.31
2019-01-23T01:30:05.745Z,17.3
2019-01-23T01:31:05.319Z,17.3
2019-01-23T01:32:05.814Z,17.3
2019-01-23T01:33:05.771Z,17.25
2019-01-23T01:34:05.400Z,17.29
2019-01-23T01:35:05.608Z,17.29
2019-01-23T01:36:05.363Z,17.28
2019-01-23T01:37:05.467Z,17.3
2019-01-23T01:38:05.195Z,17.29
2019-01-23T01:39:05.838Z,17.28
2019-01-23T01:40:05.730Z,17.28
2019-01-23T01:41:05.943Z,17.26
2019-01-23T01:42:05.732Z,17.23
2019-01-23T01:43:05.882Z,17.29
2019-01-23T01:44:05.670Z,17.26
2019-01-23T01:45:05.774Z,17.24
2019-01-23T01:46:05.621Z,17.24
2019-01-23T01:47:05.415Z,17.24
2019-01-23T01:48:05.815Z,17.23
2019-01-23T01:49:05.712Z,17.24
2019-01-23T01:50:05.411Z,17.24
2019-01-23T01:51:05.717Z,17.24
2019-01-23T01:52:05.713Z,17.23
2019-01-23T01:53:05.748Z,17.23
2019-01-23T01:54:05.405Z,17.24
2019-01-23T01:55:05.685Z,17.22
2019-01-23T01:56:05.521Z,17.19
2019-01-23T01:57:05.907Z,17.2
2019-01-23T01:58:10.486Z,17.21
2019-01-23T01:59:05.826Z,17.21
2019-01-23T02:00:05.874Z,17.2
2019-01-23T02:01:05.402Z,17.21
2019-01-23T02:02:05.809Z,17.19
2019-01-23T02:03:05.744Z,17.19
2019-01-23T02:04:05.842Z,17.19
2019-01-23T02:05:05.745Z,17.19
2019-01-23T02:06:05.681Z,17.16
2019-01-23T02:07:05.856Z,17.18
2019-01-23T02:08:06.343Z,17.16
2019-01-23T02:09:06.127Z,17.18
2019-01-23T02:10:06.986Z,17.16
2019-01-23T02:11:05.506Z,17.16
2019-01-23T02:12:06.001Z,17.16
2019-01-23T02:13:07.027Z,17.16
2019-01-23T02:14:05.808Z,17.17
2019-01-23T02:15:05.612Z,17.16
2019-01-23T02:16:06.985Z,17.16
2019-01-23T02:17:06.261Z,17.16
2019-01-23T02:18:05.992Z,17.16
2019-01-23T02:19:06.993Z,17.15
2019-01-23T02:20:07.344Z,17.14
2019-01-23T02:21:05.558Z,17.13
2019-01-23T02:22:05.798Z,17.13
2019-01-23T02:23:05.690Z,17.11
2019-01-23T02:24:05.738Z,17.1
2019-01-23T02:25:05.362Z,17.13
2019-01-23T02:26:05.783Z,17.1
2019-01-23T02:27:07.493Z,17.1
2019-01-23T02:28:05.440Z,17.1
2019-01-23T02:29:09.999Z,17.08
2019-01-23T02:30:05.664Z,17.09
2019-01-23T02:31:05.623Z,17.08
2019-01-23T02:32:05.949Z,17.1
2019-01-23T02:33:05.856Z,17.06
2019-01-23T02:34:05.382Z,17.09
2019-01-23T02:35:05.417Z,17.07
2019-01-23T02:36:05.751Z,17.08
2019-01-23T02:37:05.766Z,17.07
2019-01-23T02:38:05.471Z,17.05
2019-01-23T02:39:06.427Z,17.07
2019-01-23T02:40:05.348Z,17.05
2019-01-23T02:41:05.514Z,17.05
2019-01-23T02:42:06.248Z,17.05
2019-01-23T02:43:05.704Z,17.06
2019-01-23T02:44:06.055Z,17.05
2019-01-23T02:45:05.258Z,17.02
2019-01-23T02:46:05.723Z,17.04
2019-01-23T02:47:05.843Z,17.03
2019-01-23T02:48:06.054Z,17.03
2019-01-23T02:49:05.759Z,17.05
2019-01-23T02:50:05.780Z,17.05
2019-01-23T02:51:05.769Z,17.02
2019-01-23T02:52:05.401Z,17
2019-01-23T02:53:05.673Z,17
2019-01-23T02:54:05.625Z,17
2019-01-23T02:55:05.816Z,17
2019-01-23T02:56:05.652Z,17
2019-01-23T02:57:05.936Z,16.99
2019-01-23T02:58:05.451Z,16.99
2019-01-23T02:59:05.505Z,16.99
2019-01-23T03:00:05.859Z,17
2019-01-23T03:01:05.733Z,16.98
2019-01-23T03:02:06.957Z,16.98
2019-01-23T03:03:05.955Z,16.99
2019-01-23T03:04:05.725Z,17
2019-01-23T03:05:05.739Z,16.96
2019-01-23T03:06:05.739Z,16.98
2019-01-23T03:07:07.298Z,16.98
2019-01-23T03:08:06.002Z,16.96
2019-01-23T03:09:05.822Z,16.95
2019-01-23T03:10:05.714Z,16.95
2019-01-23T03:11:07.373Z,16.96
2019-01-23T03:12:06.425Z,16.94
2019-01-23T03:13:05.740Z,16.92
2019-01-23T03:14:05.818Z,16.95
2019-01-23T03:15:05.635Z,16.94
2019-01-23T03:16:05.810Z,16.95
2019-01-23T03:17:05.873Z,16.93
2019-01-23T03:18:05.612Z,16.92
2019-01-23T03:19:05.771Z,16.92
2019-01-23T03:20:05.794Z,16.92
2019-01-23T03:21:05.299Z,16.92
2019-01-23T03:22:05.715Z,16.94
2019-01-23T03:23:05.547Z,16.92
2019-01-23T03:24:05.368Z,16.91
2019-01-23T03:25:05.679Z,16.91
2019-01-23T03:26:05.418Z,16.92
2019-01-23T03:27:05.384Z,16.92
2019-01-23T03:28:05.453Z,16.91
2019-01-23T03:29:05.481Z,16.9
2019-01-23T03:30:05.993Z,16.89
2019-01-23T03:31:05.794Z,16.9
2019-01-23T03:32:05.528Z,16.89
2019-01-23T03:33:05.635Z,16.91
2019-01-23T03:34:05.379Z,16.89
2019-01-23T03:35:06.122Z,16.89
2019-01-23T03:36:05.631Z,16.87
2019-01-23T03:37:05.783Z,16.89
2019-01-23T03:38:05.736Z,16.88
2019-01-23T03:39:05.834Z,16.88
2019-01-23T03:40:05.599Z,16.89
2019-01-23T03:41:05.719Z,16.87
2019-01-23T03:42:05.476Z,16.86
2019-01-23T03:43:05.776Z,16.86
2019-01-23T03:44:05.660Z,16.87
2019-01-23T03:45:05.576Z,16.87
2019-01-23T03:46:05.472Z,16.86
2019-01-23T03:47:05.673Z,16.86
2019-01-23T03:48:05.535Z,16.86
2019-01-23T03:49:05.391Z,16.85
2019-01-23T03:50:05.471Z,16.84
2019-01-23T03:51:05.733Z,16.81
2019-01-23T03:52:05.369Z,16.82
2019-01-23T03:53:06.051Z,16.84
2019-01-23T03:54:05.553Z,16.85
2019-01-23T03:55:05.553Z,16.81
2019-01-23T03:56:05.460Z,16.81
2019-01-23T03:57:06.072Z,16.82
2019-01-23T03:58:05.420Z,16.82
2019-01-23T03:59:05.478Z,16.81
2019-01-23T04:00:05.581Z,16.81
2019-01-23T04:01:05.321Z,16.82
2019-01-23T04:02:06.087Z,16.79
2019-01-23T04:03:05.915Z,16.81
2019-01-23T04:04:05.378Z,16.8
2019-01-23T04:05:07.274Z,16.78
2019-01-23T04:06:06.231Z,16.8
2019-01-23T04:07:11.012Z,16.79
2019-01-23T04:08:05.927Z,16.8
2019-01-23T04:09:05.823Z,16.77
2019-01-23T04:10:07.232Z,16.77
2019-01-23T04:11:07.281Z,16.76
2019-01-23T04:12:05.569Z,16.76
2019-01-23T04:13:05.972Z,16.75
2019-01-23T04:14:05.279Z,16.77
2019-01-23T04:15:05.759Z,16.77
2019-01-23T04:16:05.772Z,16.78
2019-01-23T04:17:06.078Z,16.76
2019-01-23T04:18:05.985Z,16.74
2019-01-23T04:19:05.627Z,16.76
2019-01-23T04:20:05.371Z,16.75
2019-01-23T04:21:05.808Z,16.73
2019-01-23T04:22:05.571Z,16.76
2019-01-23T04:23:05.704Z,16.74
2019-01-23T04:24:05.529Z,16.74
2019-01-23T04:25:05.808Z,16.74
2019-01-23T04:26:05.474Z,16.74
2019-01-23T04:27:07.211Z,16.74
2019-01-23T04:28:05.379Z,16.74
2019-01-23T04:29:05.631Z,16.73
2019-01-23T04:30:05.593Z,16.72
2019-01-23T04:31:05.375Z,16.72
2019-01-23T04:32:05.498Z,16.71
2019-01-23T04:33:06.224Z,16.73
2019-01-23T04:34:05.402Z,16.72
2019-01-23T04:35:05.439Z,16.71
2019-01-23T04:36:06.208Z,16.72
2019-01-23T04:37:05.304Z,16.7
2019-01-23T04:38:05.714Z,16.72
2019-01-23T04:39:05.558Z,16.7
2019-01-23T04:40:05.619Z,16.71
2019-01-23T04:41:05.412Z,16.71
2019-01-23T04:42:05.463Z,16.69
2019-01-23T04:43:05.298Z,16.7
2019-01-23T04:44:07.906Z,16.7
2019-01-23T04:45:05.492Z,16.7
2019-01-23T04:46:05.384Z,16.72
2019-01-23T04:47:05.247Z,16.7
2019-01-23T04:48:05.589Z,16.7
2019-01-23T04:49:05.400Z,16.72
2019-01-23T04:50:05.278Z,16.71
2019-01-23T04:51:05.391Z,16.72
2019-01-23T04:52:05.249Z,16.7
2019-01-23T04:53:05.475Z,16.69
2019-01-23T04:54:06.533Z,16.71
2019-01-23T04:55:05.366Z,16.73
2019-01-23T04:56:05.340Z,16.7
2019-01-23T04:57:05.469Z,16.73
2019-01-23T04:58:05.447Z,16.75
2019-01-23T04:59:05.541Z,16.73
2019-01-23T05:00:05.920Z,16.75
2019-01-23T05:01:05.527Z,16.73
2019-01-23T05:02:05.677Z,16.74
2019-01-23T05:03:05.542Z,16.75
2019-01-23T05:04:05.286Z,16.77
2019-01-23T05:05:05.633Z,16.75
2019-01-23T05:06:05.803Z,16.77
2019-01-23T05:07:05.536Z,16.78
2019-01-23T05:08:05.573Z,16.8
2019-01-23T05:09:05.648Z,16.79
2019-01-23T05:10:05.262Z,16.82
2019-01-23T05:11:05.633Z,16.88
2019-01-23T05:12:05.720Z,16.86
2019-01-23T05:13:05.246Z,16.87
2019-01-23T05:14:05.573Z,16.86
2019-01-23T05:15:05.919Z,16.88
2019-01-23T05:16:05.433Z,16.87
2019-01-23T05:17:05.406Z,16.9
2019-01-23T05:18:05.509Z,16.91
2019-01-23T05:19:05.260Z,16.92
2019-01-23T05:20:05.404Z,16.92
2019-01-23T05:21:05.735Z,16.93
2019-01-23T05:22:05.335Z,16.96
2019-01-23T05:23:05.440Z,16.95
2019-01-23T05:24:05.496Z,16.99
2019-01-23T05:25:08.688Z,16.99
2019-01-23T05:26:05.312Z,17.01
2019-01-23T05:27:05.770Z,17.02
2019-01-23T05:28:05.670Z,17.07
2019-01-23T05:29:05.710Z,17.07
2019-01-23T05:30:05.887Z,17.07
2019-01-23T05:31:05.445Z,17.07
2019-01-23T05:32:05.442Z,17.1
2019-01-23T05:33:05.786Z,17.09
2019-01-23T05:34:05.474Z,17.15
2019-01-23T05:35:05.294Z,17.16
2019-01-23T05:36:05.426Z,17.16
2019-01-23T05:37:05.563Z,17.18
2019-01-23T05:38:05.388Z,17.19
2019-01-23T05:39:06.017Z,17.2
2019-01-23T05:40:05.482Z,17.23
2019-01-23T05:41:07.251Z,17.26
2019-01-23T05:42:05.959Z,17.28
2019-01-23T05:43:05.864Z,17.29
2019-01-23T05:44:05.203Z,17.3
2019-01-23T05:45:05.468Z,17.32
2019-01-23T05:46:05.934Z,17.35
2019-01-23T05:47:05.788Z,17.32
2019-01-23T05:48:05.484Z,17.35
2019-01-23T05:49:05.309Z,17.37
2019-01-23T05:50:05.532Z,17.38
2019-01-23T05:51:05.433Z,17.41
2019-01-23T05:52:05.422Z,17.4
2019-01-23T05:53:05.427Z,17.46
2019-01-23T05:54:05.753Z,17.45
2019-01-23T05:55:05.512Z,17.48
2019-01-23T05:56:05.767Z,17.48
2019-01-23T05:57:05.867Z,17.48
2019-01-23T05:58:05.827Z,17.5
2019-01-23T05:59:05.228Z,17.51
2019-01-23T06:00:05.329Z,17.52
2019-01-23T06:01:06.413Z,17.55
2019-01-23T06:02:05.271Z,17.56
2019-01-23T06:03:05.437Z,17.58
2019-01-23T06:04:05.495Z,17.59
2019-01-23T06:05:05.805Z,17.6
2019-01-23T06:06:05.677Z,17.6
2019-01-23T06:07:05.594Z,17.63
2019-01-23T06:08:05.448Z,17.63
2019-01-23T06:09:05.765Z,17.67
2019-01-23T06:10:05.710Z,17.66
2019-01-23T06:11:05.177Z,17.67
2019-01-23T06:12:07.256Z,17.68
2019-01-23T06:13:06.082Z,17.69
2019-01-23T06:14:05.851Z,17.7
2019-01-23T06:15:06.612Z,17.73
2019-01-23T06:16:05.434Z,17.73
2019-01-23T06:17:05.920Z,17.73
2019-01-23T06:18:05.840Z,17.75
2019-01-23T06:19:05.812Z,17.76
2019-01-23T06:20:05.999Z,17.76
2019-01-23T06:21:05.925Z,17.75
2019-01-23T06:22:05.291Z,17.77
2019-01-23T06:23:05.435Z,17.77
2019-01-23T06:24:05.421Z,17.79
2019-01-23T06:25:06.014Z,17.8
2019-01-23T06:26:05.748Z,17.83
2019-01-23T06:27:05.488Z,17.8
2019-01-23T06:28:05.796Z,17.81
2019-01-23T06:29:05.630Z,17.83
2019-01-23T06:30:10.786Z,17.85
2019-01-23T06:31:05.354Z,17.87
2019-01-23T06:32:05.825Z,17.88
2019-01-23T06:33:05.705Z,17.87
2019-01-23T06:34:05.510Z,17.89
2019-01-23T06:35:05.381Z,17.91
2019-01-23T06:36:05.682Z,17.88
2019-01-23T06:37:05.175Z,17.92
2019-01-23T06:38:05.780Z,17.93
2019-01-23T06:39:05.326Z,17.93
2019-01-23T06:40:05.419Z,17.95
2019-01-23T06:41:05.649Z,17.95
2019-01-23T06:42:05.699Z,17.95
2019-01-23T06:43:05.915Z,17.97
2019-01-23T06:44:05.259Z,17.97
2019-01-23T06:45:05.497Z,17.98
2019-01-23T06:46:05.398Z,17.98
2019-01-23T06:47:05.490Z,17.99
2019-01-23T06:48:05.434Z,17.99
2019-01-23T06:49:05.822Z,17.99
2019-01-23T06:50:05.575Z,18.03
2019-01-23T06:51:05.439Z,18.02
2019-01-23T06:52:05.475Z,18.04
2019-01-23T06:53:06.129Z,18.04
2019-01-23T06:54:05.581Z,18.03
2019-01-23T06:55:05.878Z,18.06
2019-01-23T06:56:05.444Z,18.06
2019-01-23T06:57:05.809Z,18.09
2019-01-23T06:58:05.698Z,18.05
2019-01-23T06:59:05.493Z,18.08
2019-01-23T07:00:05.451Z,18.08
2019-01-23T07:01:05.620Z,18.08
2019-01-23T07:02:05.462Z,18.08
2019-01-23T07:03:05.463Z,18.09
2019-01-23T07:04:05.377Z,18.1
2019-01-23T07:05:05.546Z,18.12
2019-01-23T07:06:05.579Z,18.08
2019-01-23T07:07:06.781Z,18.14
2019-01-23T07:08:15.624Z,18.23
2019-01-23T07:09:15.575Z,18.39
2019-01-23T07:10:15.563Z,18.42
2019-01-23T07:11:15.436Z,18.52
2019-01-23T07:12:15.602Z,18.61
2019-01-23T07:13:15.398Z,18.64
2019-01-23T07:14:15.665Z,18.66
2019-01-23T07:15:15.198Z,18.69
2019-01-23T07:16:15.344Z,18.68
2019-01-23T07:17:15.358Z,18.71
2019-01-23T07:18:15.711Z,18.71
2019-01-23T07:19:15.362Z,18.72
2019-01-23T07:20:15.628Z,18.73
2019-01-23T07:21:15.818Z,18.74
2019-01-23T07:22:15.263Z,18.77
2019-01-23T07:23:15.617Z,18.74
2019-01-23T07:24:15.740Z,18.78
2019-01-23T07:25:15.742Z,18.77
2019-01-23T07:26:15.756Z,18.78
2019-01-23T07:27:15.413Z,18.79
2019-01-23T07:28:15.580Z,18.82
2019-01-23T07:29:15.460Z,18.83
2019-01-23T07:30:15.506Z,18.82
2019-01-23T07:31:17.142Z,18.82
2019-01-23T07:32:15.729Z,18.84
2019-01-23T07:33:15.696Z,18.83
2019-01-23T07:34:15.969Z,18.84
2019-01-23T07:35:15.734Z,18.84
2019-01-23T07:36:15.946Z,18.86
2019-01-23T07:37:15.831Z,18.87
2019-01-23T07:38:15.476Z,18.88
2019-01-23T07:39:15.717Z,18.87
2019-01-23T07:40:15.770Z,18.88
2019-01-23T07:41:15.405Z,18.89
2019-01-23T07:42:15.586Z,18.88
2019-01-23T07:43:15.847Z,18.91
2019-01-23T07:44:15.680Z,18.89
2019-01-23T07:45:15.722Z,18.91
2019-01-23T07:46:15.441Z,18.93
2019-01-23T07:47:15.618Z,18.92
2019-01-23T07:48:17.210Z,18.89
2019-01-23T07:49:15.423Z,18.94
2019-01-23T07:50:15.738Z,18.92
2019-01-23T07:51:15.312Z,18.92
2019-01-23T07:52:15.718Z,18.93
2019-01-23T07:53:15.405Z,18.94
2019-01-23T07:54:16.348Z,18.94
2019-01-23T07:55:15.463Z,18.94
2019-01-23T07:56:15.313Z,18.94
2019-01-23T07:57:15.312Z,18.93
2019-01-23T07:58:15.898Z,18.96
2019-01-23T07:59:15.213Z,18.97
2019-01-23T08:00:15.930Z,18.97
2019-01-23T08:01:15.479Z,18.97
2019-01-23T08:02:15.839Z,18.98
2019-01-23T08:03:15.346Z,19.01
2019-01-23T08:04:17.047Z,19.06
2019-01-23T08:05:19.981Z,19.03
2019-01-23T08:06:15.543Z,19.07
2019-01-23T08:07:15.511Z,19.09
2019-01-23T08:08:15.537Z,19.09
2019-01-23T08:09:15.675Z,19.11
2019-01-23T08:10:15.985Z,19.13
2019-01-23T08:11:15.696Z,19.14
2019-01-23T08:12:15.853Z,19.16
2019-01-23T08:13:15.805Z,19.17
2019-01-23T08:14:15.290Z,19.17
2019-01-23T08:15:15.601Z,19.18
2019-01-23T08:16:15.379Z,19.21
2019-01-23T08:17:15.578Z,19.23
2019-01-23T08:18:15.937Z,19.23
2019-01-23T08:19:15.433Z,19.25
2019-01-23T08:20:15.378Z,19.26
2019-01-23T08:21:15.876Z,19.25
2019-01-23T08:22:15.457Z,19.27
2019-01-23T08:23:15.720Z,19.29
2019-01-23T08:24:15.385Z,19.3
2019-01-23T08:25:15.683Z,19.31
2019-01-23T08:26:15.689Z,19.32
2019-01-23T08:27:15.490Z,19.35
2019-01-23T08:28:15.208Z,19.35
2019-01-23T08:29:15.316Z,19.37
2019-01-23T08:30:15.526Z,19.37
2019-01-23T08:31:15.327Z,19.4
2019-01-23T08:32:15.546Z,19.39
2019-01-23T08:33:15.641Z,19.39
2019-01-23T08:34:15.783Z,19.43
2019-01-23T08:35:15.758Z,19.42
2019-01-23T08:36:17.278Z,19.43
2019-01-23T08:37:16.674Z,19.45
2019-01-23T08:38:15.355Z,19.45
2019-01-23T08:39:15.341Z,19.46
2019-01-23T08:40:15.709Z,19.46
2019-01-23T08:41:15.304Z,19.48
2019-01-23T08:42:15.804Z,19.51
2019-01-23T08:43:15.750Z,19.51
2019-01-23T08:44:15.501Z,19.52
2019-01-23T08:45:15.441Z,19.54
2019-01-23T08:46:15.618Z,19.54
2019-01-23T08:47:15.311Z,19.52
2019-01-23T08:48:15.335Z,19.55
2019-01-23T08:49:15.655Z,19.56
2019-01-23T08:50:15.283Z,19.56
2019-01-23T08:51:15.443Z,19.56
2019-01-23T08:52:15.677Z,19.57
2019-01-23T08:53:15.441Z,19.59
2019-01-23T08:54:15.468Z,19.6
2019-01-23T08:55:15.377Z,19.61
2019-01-23T08:56:15.702Z,19.61
2019-01-23T08:57:15.392Z,19.6
2019-01-23T08:58:15.461Z,19.63
2019-01-23T08:59:15.382Z,19.65
2019-01-23T09:00:15.344Z,19.66
2019-01-23T09:01:15.752Z,19.68
2019-01-23T09:02:15.186Z,19.67
2019-01-23T09:03:15.302Z,19.68
2019-01-23T09:04:15.350Z,19.69
2019-01-23T09:05:15.772Z,19.7
2019-01-23T09:06:15.673Z,19.68
2019-01-23T09:07:18.035Z,19.71
2019-01-23T09:08:15.782Z,19.72
2019-01-23T09:09:16.065Z,19.72
2019-01-23T09:10:15.725Z,19.71
2019-01-23T09:11:15.697Z,19.75
2019-01-23T09:12:16.854Z,19.75
2019-01-23T09:13:15.770Z,19.75
2019-01-23T09:14:15.308Z,19.75
2019-01-23T09:15:15.651Z,19.73
2019-01-23T09:16:15.971Z,19.74
2019-01-23T09:17:15.782Z,19.75
2019-01-23T09:18:15.636Z,19.75
2019-01-23T09:19:18.238Z,19.75
2019-01-23T09:20:15.671Z,19.75
2019-01-23T09:21:15.987Z,19.74
2019-01-23T09:22:15.359Z,19.73
2019-01-23T09:23:15.423Z,19.72
2019-01-23T09:24:15.837Z,19.73
2019-01-23T09:25:15.738Z,19.72
2019-01-23T09:26:16.231Z,19.74
2019-01-23T09:27:15.523Z,19.74
2019-01-23T09:28:15.285Z,19.73
2019-01-23T09:29:15.393Z,19.75
2019-01-23T09:30:16.369Z,19.73
2019-01-23T09:31:15.206Z,19.74
2019-01-23T09:32:15.387Z,19.73
2019-01-23T09:33:15.454Z,19.73
2019-01-23T09:34:15.918Z,19.71
2019-01-23T09:35:15.367Z,19.71
2019-01-23T09:36:15.805Z,19.74
2019-01-23T09:37:15.612Z,19.75
2019-01-23T09:38:15.561Z,19.74
2019-01-23T09:39:16.342Z,19.76
2019-01-23T09:40:15.444Z,19.77
2019-01-23T09:41:15.537Z,19.76
2019-01-23T09:42:16.043Z,19.77
2019-01-23T09:43:15.161Z,19.79
2019-01-23T09:44:15.352Z,19.79
2019-01-23T09:45:15.391Z,19.79
2019-01-23T09:46:15.493Z,19.79
2019-01-23T09:47:15.562Z,19.8
2019-01-23T09:48:15.259Z,19.82
2019-01-23T09:49:15.481Z,19.77
2019-01-23T09:50:16.373Z,19.82
2019-01-23T09:51:15.304Z,19.83
2019-01-23T09:52:16.735Z,19.81
2019-01-23T09:53:15.626Z,19.82
2019-01-23T09:54:15.287Z,19.82
2019-01-23T09:55:15.707Z,19.84
2019-01-23T09:56:16.250Z,19.85
2019-01-23T09:57:15.332Z,19.83
2019-01-23T09:58:22.287Z,19.89
2019-01-23T09:59:22.881Z,19.84
2019-01-23T10:00:22.471Z,19.82
2019-01-23T10:01:22.905Z,19.76
2019-01-23T10:02:24.193Z,19.75
2019-01-23T10:03:23.412Z,19.71
2019-01-23T10:04:22.745Z,19.68
2019-01-23T10:05:23.162Z,19.66
2019-01-23T10:06:22.646Z,19.6
2019-01-23T10:07:22.517Z,19.56
2019-01-23T10:08:22.810Z,19.55
2019-01-23T10:09:23.063Z,19.52
2019-01-23T10:10:23.024Z,19.5
2019-01-23T10:11:24.439Z,19.45
2019-01-23T10:12:23.759Z,19.46
2019-01-23T10:13:22.417Z,19.43
2019-01-23T10:14:22.892Z,19.41
2019-01-23T10:15:23.426Z,19.4
2019-01-23T10:16:22.757Z,19.37
2019-01-23T10:17:22.842Z,19.35
2019-01-23T10:18:22.352Z,19.33
2019-01-23T10:19:22.350Z,19.32
2019-01-23T10:20:22.635Z,19.33
2019-01-23T10:21:22.247Z,19.3
2019-01-23T10:22:22.484Z,19.3
2019-01-23T10:23:22.758Z,19.29
2019-01-23T10:24:22.269Z,19.28
2019-01-23T10:25:23.124Z,19.27
2019-01-23T10:26:22.283Z,19.28
2019-01-23T10:27:22.723Z,19.25
2019-01-23T10:28:22.450Z,19.26
2019-01-23T10:29:22.626Z,19.25
2019-01-23T10:30:22.407Z,19.26
2019-01-23T10:31:22.439Z,19.25
2019-01-23T10:32:22.945Z,19.25
2019-01-23T10:33:22.350Z,19.25
2019-01-23T10:34:22.302Z,19.25
2019-01-23T10:35:22.659Z,19.25
2019-01-23T10:36:22.688Z,19.24
2019-01-23T10:37:22.367Z,19.22
2019-01-23T10:38:22.487Z,19.24
2019-01-23T10:39:22.688Z,19.21
2019-01-23T10:40:22.612Z,19.24
2019-01-23T10:41:22.801Z,19.24
2019-01-23T10:42:22.538Z,19.22
2019-01-23T10:43:22.460Z,19.23
2019-01-23T10:44:22.730Z,19.22
2019-01-23T10:45:22.536Z,19.21
2019-01-23T10:46:22.441Z,19.24
2019-01-23T10:47:22.694Z,19.23
2019-01-23T10:48:22.668Z,19.24
2019-01-23T10:49:24.328Z,19.23
2019-01-23T10:50:22.441Z,19.21
2019-01-23T10:51:22.686Z,19.23
2019-01-23T10:52:22.721Z,19.23
2019-01-23T10:53:22.877Z,19.22
2019-01-23T10:54:22.407Z,19.23
2019-01-23T10:55:22.589Z,19.24
2019-01-23T10:56:22.691Z,19.23
2019-01-23T10:57:23.338Z,19.24
2019-01-23T10:58:22.459Z,19.22
2019-01-23T10:59:22.648Z,19.24
2019-01-23T11:00:22.251Z,19.23
2019-01-23T11:01:22.488Z,19.21
2019-01-23T11:02:22.962Z,19.21
2019-01-23T11:03:24.171Z,19.23
2019-01-23T11:04:23.291Z,19.23
2019-01-23T11:05:22.872Z,19.23
2019-01-23T11:06:22.515Z,19.25
2019-01-23T11:07:22.397Z,19.25
2019-01-23T11:08:24.399Z,19.25
2019-01-23T11:09:23.606Z,19.22
2019-01-23T11:10:22.461Z,19.25
2019-01-23T11:11:22.831Z,19.24
2019-01-23T11:12:22.321Z,19.24
2019-01-23T11:13:22.345Z,19.25
2019-01-23T11:14:23.051Z,19.25
2019-01-23T11:15:22.669Z,19.24
2019-01-23T11:16:24.154Z,19.26
2019-01-23T11:17:22.935Z,19.24
2019-01-23T11:18:22.768Z,19.25
2019-01-23T11:19:22.776Z,19.26
2019-01-23T11:20:22.788Z,19.25
2019-01-23T11:21:22.696Z,19.25
2019-01-23T11:22:22.710Z,19.25
2019-01-23T11:23:22.273Z,19.25
2019-01-23T11:24:23.040Z,19.26
2019-01-23T11:25:22.484Z,19.24
2019-01-23T11:26:22.721Z,19.25
2019-01-23T11:27:24.349Z,19.26
2019-01-23T11:28:22.807Z,19.26
2019-01-23T11:29:22.674Z,19.27
2019-01-23T11:30:22.686Z,19.26
2019-01-23T11:31:22.232Z,19.27
2019-01-23T11:32:22.965Z,19.28
2019-01-23T11:33:22.651Z,19.28
2019-01-23T11:34:22.355Z,19.25
2019-01-23T11:35:22.708Z,19.28
2019-01-23T11:36:22.368Z,19.27
2019-01-23T11:37:22.351Z,19.29
2019-01-23T11:38:22.386Z,19.27
2019-01-23T11:39:22.828Z,19.27
2019-01-23T11:40:22.942Z,19.28
2019-01-23T11:41:23.092Z,19.28
2019-01-23T11:42:22.389Z,19.3
2019-01-23T11:43:22.267Z,19.29
2019-01-23T11:44:23.566Z,19.29
2019-01-23T11:45:23.117Z,19.29
2019-01-23T11:46:22.866Z,19.28
2019-01-23T11:47:22.517Z,19.31
2019-01-23T11:48:22.566Z,19.31
2019-01-23T11:49:23.731Z,19.28
2019-01-23T11:50:23.376Z,19.26
2019-01-23T11:51:22.535Z,19.3
2019-01-23T11:52:23.026Z,19.28
2019-01-23T11:53:22.599Z,19.28
2019-01-23T11:54:22.363Z,19.28
2019-01-23T11:55:22.368Z,19.27
2019-01-23T11:56:22.420Z,19.28
2019-01-23T11:57:22.370Z,19.27
2019-01-23T11:58:22.547Z,19.29
2019-01-23T11:59:22.776Z,19.25
2019-01-23T12:00:23.045Z,19.27
2019-01-23T12:01:28.014Z,19.27
2019-01-23T12:02:22.569Z,19.25
2019-01-23T12:03:22.244Z,19.27
2019-01-23T12:04:22.332Z,19.25
2019-01-23T12:05:23.240Z,19.26
2019-01-23T12:06:24.889Z,19.25
2019-01-23T12:07:22.651Z,19.25
2019-01-23T12:08:23.063Z,19.25
2019-01-23T12:09:23.091Z,19.25
2019-01-23T12:10:22.944Z,19.26
2019-01-23T12:11:22.666Z,19.23
2019-01-23T12:12:22.794Z,19.25
2019-01-23T12:13:22.475Z,19.26
2019-01-23T12:14:22.714Z,19.24
2019-01-23T12:15:22.913Z,19.24
2019-01-23T12:16:22.918Z,19.25
2019-01-23T12:17:22.348Z,19.25
2019-01-23T12:18:22.817Z,19.25
2019-01-23T12:19:22.740Z,19.23
2019-01-23T12:20:22.272Z,19.24
2019-01-23T12:21:22.380Z,19.24
2019-01-23T12:22:22.517Z,19.25
2019-01-23T12:23:22.385Z,19.24
2019-01-23T12:24:22.624Z,19.26
2019-01-23T12:25:22.304Z,19.25
2019-01-23T12:26:22.228Z,19.25
2019-01-23T12:27:22.653Z,19.25
2019-01-23T12:28:22.779Z,19.27
2019-01-23T12:29:22.613Z,19.27
2019-01-23T12:30:22.336Z,19.29
2019-01-23T12:31:22.302Z,19.29
2019-01-23T12:32:22.768Z,19.29
2019-01-23T12:33:22.291Z,19.29
2019-01-23T12:34:22.286Z,19.3
2019-01-23T12:35:22.738Z,19.29
2019-01-23T12:36:22.746Z,19.31
2019-01-23T12:37:22.632Z,19.3
2019-01-23T12:38:22.803Z,19.31
2019-01-23T12:39:22.286Z,19.3
2019-01-23T12:40:22.248Z,19.32
2019-01-23T12:41:22.352Z,19.3
2019-01-23T12:42:22.809Z,19.33
2019-01-23T12:43:22.573Z,19.31
2019-01-23T12:44:22.889Z,19.32
2019-01-23T12:45:22.692Z,19.33
2019-01-23T12:46:22.461Z,19.32
2019-01-23T12:47:22.700Z,19.32
2019-01-23T12:48:22.370Z,19.35
2019-01-23T12:49:22.626Z,19.35
2019-01-23T12:50:22.416Z,19.35
2019-01-23T12:51:22.610Z,19.32
2019-01-23T12:52:22.427Z,19.36
2019-01-23T12:53:24.225Z,19.32
2019-01-23T12:54:22.636Z,19.35
2019-01-23T12:55:22.879Z,19.36